sensor_id;sensor_type;location;lat;lon;timestamp;P1;durP1;ratioP1;P2;durP2;ratioP2
13816;SDS011;6979;52.116;5.286;2023-03-23T00:02:03;6.63;;;6.10;;
13816;SDS011;6979;52.116;5.286;2023-03-23T00:04:30;7.93;;;5.63;;
13816;SDS011;6979;52.116;5.286;2023-03-23T00:06:57;6.43;;;5.53;;
13816;SDS011;6979;52.116;5.286;2023-03-23T00:09:26;6.17;;;5.57;;
13816;SDS011;6979;52.116;5.286;2023-03-23T00:11:52;7.50;;;5.67;;
13816;SDS011;6979;52.116;5.286;2023-03-23T00:14:23;5.43;;;5.03;;
13816;SDS011;6979;52.116;5.286;2023-03-23T00:16:50;6.27;;;5.30;;
13816;SDS011;6979;52.116;5.286;2023-03-23T00:19:17;7.07;;;5.77;;
13816;SDS011;6979;52.116;5.286;2023-03-23T00:21:45;5.53;;;5.13;;
13816;SDS011;6979;52.116;5.286;2023-03-23T00:24:12;5.77;;;4.90;;
13816;SDS011;6979;52.116;5.286;2023-03-23T00:26:42;6.17;;;5.60;;
13816;SDS011;6979;52.116;5.286;2023-03-23T00:29:12;6.13;;;5.53;;
13816;SDS011;6979;52.116;5.286;2023-03-23T00:31:42;5.83;;;5.27;;
13816;SDS011;6979;52.116;5.286;2023-03-23T00:34:12;5.73;;;5.27;;
13816;SDS011;6979;52.116;5.286;2023-03-23T00:36:43;8.60;;;5.70;;
13816;SDS011;6979;52.116;5.286;2023-03-23T00:39:11;6.50;;;5.10;;
13816;SDS011;6979;52.116;5.286;2023-03-23T00:41:39;5.63;;;4.97;;
13816;SDS011;6979;52.116;5.286;2023-03-23T00:44:06;6.00;;;5.53;;
13816;SDS011;6979;52.116;5.286;2023-03-23T00:46:33;6.47;;;5.23;;
13816;SDS011;6979;52.116;5.286;2023-03-23T00:49:12;6.10;;;4.73;;
13816;SDS011;6979;52.116;5.286;2023-03-23T00:51:39;5.63;;;4.43;;
13816;SDS011;6979;52.116;5.286;2023-03-23T00:54:07;6.03;;;4.50;;
13816;SDS011;6979;52.116;5.286;2023-03-23T00:56:35;5.50;;;5.00;;
13816;SDS011;6979;52.116;5.286;2023-03-23T00:59:02;4.70;;;4.17;;
13816;SDS011;6979;52.116;5.286;2023-03-23T01:01:29;4.87;;;4.40;;
13816;SDS011;6979;52.116;5.286;2023-03-23T01:03:57;5.33;;;4.17;;
13816;SDS011;6979;52.116;5.286;2023-03-23T01:06:27;5.77;;;4.27;;
13816;SDS011;6979;52.116;5.286;2023-03-23T01:08:55;4.23;;;3.87;;
13816;SDS011;6979;52.116;5.286;2023-03-23T01:11:23;4.80;;;3.93;;
13816;SDS011;6979;52.116;5.286;2023-03-23T01:13:51;5.50;;;4.27;;
13816;SDS011;6979;52.116;5.286;2023-03-23T01:16:19;4.20;;;3.80;;
13816;SDS011;6979;52.116;5.286;2023-03-23T01:18:46;4.33;;;4.03;;
13816;SDS011;6979;52.116;5.286;2023-03-23T01:21:14;4.40;;;4.00;;
13816;SDS011;6979;52.116;5.286;2023-03-23T01:23:45;4.57;;;4.13;;
13816;SDS011;6979;52.116;5.286;2023-03-23T01:26:13;4.63;;;3.83;;
13816;SDS011;6979;52.116;5.286;2023-03-23T01:28:42;3.90;;;3.60;;
13816;SDS011;6979;52.116;5.286;2023-03-23T01:31:10;3.87;;;3.47;;
13816;SDS011;6979;52.116;5.286;2023-03-23T01:33:39;5.90;;;4.37;;
13816;SDS011;6979;52.116;5.286;2023-03-23T01:36:07;3.90;;;3.57;;
13816;SDS011;6979;52.116;5.286;2023-03-23T01:38:37;4.10;;;3.80;;
13816;SDS011;6979;52.116;5.286;2023-03-23T01:41:05;3.83;;;3.63;;
13816;SDS011;6979;52.116;5.286;2023-03-23T01:43:32;4.10;;;3.80;;
13816;SDS011;6979;52.116;5.286;2023-03-23T01:45:59;4.73;;;4.17;;
13816;SDS011;6979;52.116;5.286;2023-03-23T01:48:27;4.03;;;3.67;;
13816;SDS011;6979;52.116;5.286;2023-03-23T01:50:57;4.77;;;4.37;;
13816;SDS011;6979;52.116;5.286;2023-03-23T01:53:28;4.23;;;3.93;;
13816;SDS011;6979;52.116;5.286;2023-03-23T01:55:59;4.57;;;4.20;;
13816;SDS011;6979;52.116;5.286;2023-03-23T01:58:29;4.67;;;4.27;;
13816;SDS011;6979;52.116;5.286;2023-03-23T02:00:59;4.03;;;3.73;;
13816;SDS011;6979;52.116;5.286;2023-03-23T02:03:30;4.23;;;3.80;;
13816;SDS011;6979;52.116;5.286;2023-03-23T02:05:58;4.70;;;4.10;;
13816;SDS011;6979;52.116;5.286;2023-03-23T02:08:40;4.60;;;4.20;;
13816;SDS011;6979;52.116;5.286;2023-03-23T02:11:12;5.57;;;3.77;;
13816;SDS011;6979;52.116;5.286;2023-03-23T02:13:41;4.90;;;4.53;;
13816;SDS011;6979;52.116;5.286;2023-03-23T02:16:10;4.60;;;4.27;;
13816;SDS011;6979;52.116;5.286;2023-03-23T02:18:51;3.93;;;3.63;;
13816;SDS011;6979;52.116;5.286;2023-03-23T02:21:34;4.13;;;3.83;;
13816;SDS011;6979;52.116;5.286;2023-03-23T02:24:36;3.60;;;3.30;;
13816;SDS011;6979;52.116;5.286;2023-03-23T02:27:25;3.90;;;3.40;;
13816;SDS011;6979;52.116;5.286;2023-03-23T02:30:12;3.73;;;3.43;;
13816;SDS011;6979;52.116;5.286;2023-03-23T02:35:56;5.07;;;4.13;;
13816;SDS011;6979;52.116;5.286;2023-03-23T02:38:28;3.90;;;3.60;;
13816;SDS011;6979;52.116;5.286;2023-03-23T02:41:00;4.23;;;3.83;;
13816;SDS011;6979;52.116;5.286;2023-03-23T02:43:30;4.30;;;3.93;;
13816;SDS011;6979;52.116;5.286;2023-03-23T02:46:01;4.40;;;4.00;;
13816;SDS011;6979;52.116;5.286;2023-03-23T02:48:32;4.03;;;3.73;;
13816;SDS011;6979;52.116;5.286;2023-03-23T02:51:00;4.63;;;3.60;;
13816;SDS011;6979;52.116;5.286;2023-03-23T02:53:29;3.50;;;3.30;;
13816;SDS011;6979;52.116;5.286;2023-03-23T02:55:59;4.07;;;3.67;;
13816;SDS011;6979;52.116;5.286;2023-03-23T02:58:30;5.60;;;4.17;;
13816;SDS011;6979;52.116;5.286;2023-03-23T03:00:57;3.60;;;3.30;;
13816;SDS011;6979;52.116;5.286;2023-03-23T03:03:26;3.97;;;3.50;;
13816;SDS011;6979;52.116;5.286;2023-03-23T03:05:58;5.50;;;3.93;;
13816;SDS011;6979;52.116;5.286;2023-03-23T03:08:36;3.13;;;2.93;;
13816;SDS011;6979;52.116;5.286;2023-03-23T03:11:11;3.53;;;3.23;;
13816;SDS011;6979;52.116;5.286;2023-03-23T03:13:43;3.83;;;3.53;;
13816;SDS011;6979;52.116;5.286;2023-03-23T03:16:19;5.10;;;3.60;;
13816;SDS011;6979;52.116;5.286;2023-03-23T03:18:51;5.20;;;3.67;;
13816;SDS011;6979;52.116;5.286;2023-03-23T03:21:25;2.83;;;2.60;;
13816;SDS011;6979;52.116;5.286;2023-03-23T03:23:57;5.10;;;3.30;;
13816;SDS011;6979;52.116;5.286;2023-03-23T03:26:27;2.70;;;2.50;;
13816;SDS011;6979;52.116;5.286;2023-03-23T03:29:06;2.90;;;2.60;;
13816;SDS011;6979;52.116;5.286;2023-03-23T03:31:41;2.53;;;2.20;;
13816;SDS011;6979;52.116;5.286;2023-03-23T03:34:11;4.47;;;3.30;;
13816;SDS011;6979;52.116;5.286;2023-03-23T03:36:45;2.77;;;2.43;;
13816;SDS011;6979;52.116;5.286;2023-03-23T03:39:15;3.83;;;2.57;;
13816;SDS011;6979;52.116;5.286;2023-03-23T03:41:45;4.50;;;2.73;;
13816;SDS011;6979;52.116;5.286;2023-03-23T03:44:12;2.87;;;2.67;;
13816;SDS011;6979;52.116;5.286;2023-03-23T03:46:40;2.50;;;2.23;;
13816;SDS011;6979;52.116;5.286;2023-03-23T03:49:08;4.67;;;2.47;;
13816;SDS011;6979;52.116;5.286;2023-03-23T03:51:39;2.87;;;2.20;;
13816;SDS011;6979;52.116;5.286;2023-03-23T03:54:12;2.43;;;2.23;;
13816;SDS011;6979;52.116;5.286;2023-03-23T03:56:39;4.67;;;2.23;;
13816;SDS011;6979;52.116;5.286;2023-03-23T03:59:22;2.43;;;2.23;;
13816;SDS011;6979;52.116;5.286;2023-03-23T04:02:11;2.60;;;2.40;;
13816;SDS011;6979;52.116;5.286;2023-03-23T04:04:40;3.17;;;2.20;;
13816;SDS011;6979;52.116;5.286;2023-03-23T04:07:08;2.83;;;2.00;;
13816;SDS011;6979;52.116;5.286;2023-03-23T04:09:38;4.63;;;2.40;;
13816;SDS011;6979;52.116;5.286;2023-03-23T04:12:05;3.77;;;1.97;;
13816;SDS011;6979;52.116;5.286;2023-03-23T04:14:55;3.83;;;1.93;;
13816;SDS011;6979;52.116;5.286;2023-03-23T04:17:31;5.97;;;2.60;;
13816;SDS011;6979;52.116;5.286;2023-03-23T04:19:59;5.47;;;2.33;;
13816;SDS011;6979;52.116;5.286;2023-03-23T04:22:27;4.53;;;2.23;;
13816;SDS011;6979;52.116;5.286;2023-03-23T04:24:59;2.57;;;2.00;;
13816;SDS011;6979;52.116;5.286;2023-03-23T04:27:32;5.67;;;2.67;;
13816;SDS011;6979;52.116;5.286;2023-03-23T04:30:01;2.67;;;2.00;;
13816;SDS011;6979;52.116;5.286;2023-03-23T04:32:48;5.20;;;2.50;;
13816;SDS011;6979;52.116;5.286;2023-03-23T04:35:21;3.60;;;2.00;;
13816;SDS011;6979;52.116;5.286;2023-03-23T04:38:01;5.37;;;2.10;;
13816;SDS011;6979;52.116;5.286;2023-03-23T04:40:34;7.93;;;2.40;;
13816;SDS011;6979;52.116;5.286;2023-03-23T04:43:13;2.67;;;2.03;;
13816;SDS011;6979;52.116;5.286;2023-03-23T04:45:53;4.33;;;2.37;;
13816;SDS011;6979;52.116;5.286;2023-03-23T04:48:23;5.03;;;2.20;;
13816;SDS011;6979;52.116;5.286;2023-03-23T04:51:00;6.97;;;2.33;;
13816;SDS011;6979;52.116;5.286;2023-03-23T04:53:28;8.73;;;3.33;;
13816;SDS011;6979;52.116;5.286;2023-03-23T04:55:57;5.00;;;2.57;;
13816;SDS011;6979;52.116;5.286;2023-03-23T04:58:26;5.20;;;2.40;;
13816;SDS011;6979;52.116;5.286;2023-03-23T05:01:12;5.57;;;2.20;;
13816;SDS011;6979;52.116;5.286;2023-03-23T05:03:48;3.57;;;2.43;;
13816;SDS011;6979;52.116;5.286;2023-03-23T05:06:15;3.57;;;1.93;;
13816;SDS011;6979;52.116;5.286;2023-03-23T05:08:43;5.23;;;2.23;;
13816;SDS011;6979;52.116;5.286;2023-03-23T05:11:12;4.30;;;2.03;;
13816;SDS011;6979;52.116;5.286;2023-03-23T05:13:41;5.07;;;2.47;;
13816;SDS011;6979;52.116;5.286;2023-03-23T05:16:09;3.53;;;2.20;;
13816;SDS011;6979;52.116;5.286;2023-03-23T05:18:38;5.40;;;2.40;;
13816;SDS011;6979;52.116;5.286;2023-03-23T05:21:08;7.70;;;2.80;;
13816;SDS011;6979;52.116;5.286;2023-03-23T05:23:39;5.90;;;2.60;;
13816;SDS011;6979;52.116;5.286;2023-03-23T05:26:16;6.87;;;2.57;;
13816;SDS011;6979;52.116;5.286;2023-03-23T05:28:43;2.87;;;2.00;;
13816;SDS011;6979;52.116;5.286;2023-03-23T05:31:17;6.43;;;2.23;;
13816;SDS011;6979;52.116;5.286;2023-03-23T05:33:44;2.87;;;1.67;;
13816;SDS011;6979;52.116;5.286;2023-03-23T05:36:19;5.63;;;2.73;;
13816;SDS011;6979;52.116;5.286;2023-03-23T05:39:13;5.60;;;2.33;;
13816;SDS011;6979;52.116;5.286;2023-03-23T05:42:04;6.07;;;2.40;;
13816;SDS011;6979;52.116;5.286;2023-03-23T05:44:46;5.20;;;2.43;;
13816;SDS011;6979;52.116;5.286;2023-03-23T05:47:13;6.57;;;2.37;;
13816;SDS011;6979;52.116;5.286;2023-03-23T05:49:46;5.50;;;2.77;;
13816;SDS011;6979;52.116;5.286;2023-03-23T05:52:16;3.97;;;2.20;;
13816;SDS011;6979;52.116;5.286;2023-03-23T05:54:44;5.10;;;2.43;;
13816;SDS011;6979;52.116;5.286;2023-03-23T05:57:12;7.87;;;2.67;;
13816;SDS011;6979;52.116;5.286;2023-03-23T05:59:46;7.43;;;3.10;;
13816;SDS011;6979;52.116;5.286;2023-03-23T06:02:19;5.53;;;2.63;;
13816;SDS011;6979;52.116;5.286;2023-03-23T06:04:46;7.43;;;2.90;;
13816;SDS011;6979;52.116;5.286;2023-03-23T06:07:34;3.97;;;2.20;;
13816;SDS011;6979;52.116;5.286;2023-03-23T06:10:04;4.13;;;2.40;;
13816;SDS011;6979;52.116;5.286;2023-03-23T06:12:38;5.00;;;2.87;;
13816;SDS011;6979;52.116;5.286;2023-03-23T06:15:14;5.97;;;2.90;;
13816;SDS011;6979;52.116;5.286;2023-03-23T06:18:01;4.97;;;3.07;;
13816;SDS011;6979;52.116;5.286;2023-03-23T06:20:41;4.37;;;3.03;;
13816;SDS011;6979;52.116;5.286;2023-03-23T06:23:38;6.67;;;3.30;;
13816;SDS011;6979;52.116;5.286;2023-03-23T06:26:08;3.80;;;2.30;;
13816;SDS011;6979;52.116;5.286;2023-03-23T06:28:39;3.90;;;2.50;;
13816;SDS011;6979;52.116;5.286;2023-03-23T06:31:06;4.10;;;2.57;;
13816;SDS011;6979;52.116;5.286;2023-03-23T06:33:34;4.60;;;2.83;;
13816;SDS011;6979;52.116;5.286;2023-03-23T06:36:15;3.77;;;2.80;;
13816;SDS011;6979;52.116;5.286;2023-03-23T06:39:11;4.77;;;2.80;;
13816;SDS011;6979;52.116;5.286;2023-03-23T06:42:10;4.47;;;3.20;;
13816;SDS011;6979;52.116;5.286;2023-03-23T06:44:43;3.57;;;2.10;;
13816;SDS011;6979;52.116;5.286;2023-03-23T06:47:11;5.80;;;2.50;;
13816;SDS011;6979;52.116;5.286;2023-03-23T06:49:44;4.93;;;3.20;;
13816;SDS011;6979;52.116;5.286;2023-03-23T06:52:22;7.20;;;3.00;;
13816;SDS011;6979;52.116;5.286;2023-03-23T06:54:50;4.00;;;2.90;;
13816;SDS011;6979;52.116;5.286;2023-03-23T06:57:19;5.53;;;2.67;;
13816;SDS011;6979;52.116;5.286;2023-03-23T06:59:49;8.23;;;2.70;;
13816;SDS011;6979;52.116;5.286;2023-03-23T07:02:17;4.70;;;2.67;;
13816;SDS011;6979;52.116;5.286;2023-03-23T07:04:48;6.60;;;3.47;;
13816;SDS011;6979;52.116;5.286;2023-03-23T07:07:19;9.97;;;3.80;;
13816;SDS011;6979;52.116;5.286;2023-03-23T07:09:52;6.30;;;3.10;;
13816;SDS011;6979;52.116;5.286;2023-03-23T07:12:21;4.63;;;2.97;;
13816;SDS011;6979;52.116;5.286;2023-03-23T07:14:51;6.53;;;3.80;;
13816;SDS011;6979;52.116;5.286;2023-03-23T07:17:18;5.57;;;3.40;;
13816;SDS011;6979;52.116;5.286;2023-03-23T07:20:09;4.07;;;2.53;;
13816;SDS011;6979;52.116;5.286;2023-03-23T07:22:38;7.00;;;3.27;;
13816;SDS011;6979;52.116;5.286;2023-03-23T07:25:19;6.60;;;3.10;;
13816;SDS011;6979;52.116;5.286;2023-03-23T07:27:52;9.90;;;3.17;;
13816;SDS011;6979;52.116;5.286;2023-03-23T07:30:21;7.87;;;3.10;;
13816;SDS011;6979;52.116;5.286;2023-03-23T07:32:48;4.83;;;2.80;;
13816;SDS011;6979;52.116;5.286;2023-03-23T07:35:16;6.93;;;3.17;;
13816;SDS011;6979;52.116;5.286;2023-03-23T07:38:04;5.50;;;3.53;;
13816;SDS011;6979;52.116;5.286;2023-03-23T07:40:37;7.77;;;5.33;;
13816;SDS011;6979;52.116;5.286;2023-03-23T07:43:12;5.73;;;2.63;;
13816;SDS011;6979;52.116;5.286;2023-03-23T07:46:02;5.30;;;2.87;;
13816;SDS011;6979;52.116;5.286;2023-03-23T07:48:38;6.40;;;3.13;;
13816;SDS011;6979;52.116;5.286;2023-03-23T07:51:05;7.07;;;5.13;;
13816;SDS011;6979;52.116;5.286;2023-03-23T07:53:33;8.13;;;3.67;;
13816;SDS011;6979;52.116;5.286;2023-03-23T07:56:20;5.10;;;3.03;;
13816;SDS011;6979;52.116;5.286;2023-03-23T07:59:07;5.33;;;3.10;;
13816;SDS011;6979;52.116;5.286;2023-03-23T08:01:39;6.20;;;3.00;;
13816;SDS011;6979;52.116;5.286;2023-03-23T08:04:33;6.93;;;3.50;;
13816;SDS011;6979;52.116;5.286;2023-03-23T08:07:40;5.63;;;3.63;;
13816;SDS011;6979;52.116;5.286;2023-03-23T08:10:25;6.87;;;3.50;;
13816;SDS011;6979;52.116;5.286;2023-03-23T08:12:59;3.73;;;3.10;;
13816;SDS011;6979;52.116;5.286;2023-03-23T08:15:47;5.60;;;3.10;;
13816;SDS011;6979;52.116;5.286;2023-03-23T08:18:32;4.83;;;3.10;;
13816;SDS011;6979;52.116;5.286;2023-03-23T08:21:18;8.00;;;3.40;;
13816;SDS011;6979;52.116;5.286;2023-03-23T08:24:19;7.57;;;3.77;;
13816;SDS011;6979;52.116;5.286;2023-03-23T08:27:12;12.43;;;9.03;;
13816;SDS011;6979;52.116;5.286;2023-03-23T08:29:43;5.80;;;3.27;;
13816;SDS011;6979;52.116;5.286;2023-03-23T08:32:45;8.13;;;3.17;;
13816;SDS011;6979;52.116;5.286;2023-03-23T08:35:32;7.30;;;3.33;;
13816;SDS011;6979;52.116;5.286;2023-03-23T08:38:27;3.17;;;2.33;;
13816;SDS011;6979;52.116;5.286;2023-03-23T08:41:21;5.57;;;2.80;;
13816;SDS011;6979;52.116;5.286;2023-03-23T08:43:54;3.77;;;2.80;;
13816;SDS011;6979;52.116;5.286;2023-03-23T08:46:40;6.50;;;3.17;;
13816;SDS011;6979;52.116;5.286;2023-03-23T08:49:32;7.07;;;3.03;;
13816;SDS011;6979;52.116;5.286;2023-03-23T08:52:21;9.33;;;5.73;;
13816;SDS011;6979;52.116;5.286;2023-03-23T08:54:55;6.23;;;3.37;;
13816;SDS011;6979;52.116;5.286;2023-03-23T08:57:35;4.80;;;3.30;;
13816;SDS011;6979;52.116;5.286;2023-03-23T09:00:35;7.43;;;3.10;;
13816;SDS011;6979;52.116;5.286;2023-03-23T09:03:07;5.97;;;3.67;;
13816;SDS011;6979;52.116;5.286;2023-03-23T09:05:46;3.97;;;2.70;;
13816;SDS011;6979;52.116;5.286;2023-03-23T09:08:23;7.07;;;3.73;;
13816;SDS011;6979;52.116;5.286;2023-03-23T09:10:50;6.20;;;3.57;;
13816;SDS011;6979;52.116;5.286;2023-03-23T09:13:17;6.00;;;3.23;;
13816;SDS011;6979;52.116;5.286;2023-03-23T09:15:44;8.93;;;3.20;;
13816;SDS011;6979;52.116;5.286;2023-03-23T09:18:11;6.53;;;3.37;;
13816;SDS011;6979;52.116;5.286;2023-03-23T09:20:38;6.73;;;3.20;;
13816;SDS011;6979;52.116;5.286;2023-03-23T09:23:07;7.27;;;3.10;;
13816;SDS011;6979;52.116;5.286;2023-03-23T09:25:35;6.60;;;2.93;;
13816;SDS011;6979;52.116;5.286;2023-03-23T09:28:03;8.43;;;3.40;;
13816;SDS011;6979;52.116;5.286;2023-03-23T09:30:30;10.77;;;4.10;;
13816;SDS011;6979;52.116;5.286;2023-03-23T09:33:01;6.13;;;2.80;;
13816;SDS011;6979;52.116;5.286;2023-03-23T09:35:28;5.97;;;3.20;;
13816;SDS011;6979;52.116;5.286;2023-03-23T09:37:56;8.40;;;3.60;;
13816;SDS011;6979;52.116;5.286;2023-03-23T09:40:26;5.97;;;2.97;;
13816;SDS011;6979;52.116;5.286;2023-03-23T09:45:53;9.13;;;3.83;;
13816;SDS011;6979;52.116;5.286;2023-03-23T09:48:29;5.40;;;3.30;;
13816;SDS011;6979;52.116;5.286;2023-03-23T09:51:06;4.20;;;2.07;;
13816;SDS011;6979;52.116;5.286;2023-03-23T09:53:48;7.57;;;3.47;;
13816;SDS011;6979;52.116;5.286;2023-03-23T09:56:18;4.53;;;2.60;;
13816;SDS011;6979;52.116;5.286;2023-03-23T09:58:49;4.90;;;2.83;;
13816;SDS011;6979;52.116;5.286;2023-03-23T10:01:20;6.43;;;2.70;;
13816;SDS011;6979;52.116;5.286;2023-03-23T10:03:52;6.83;;;3.00;;
13816;SDS011;6979;52.116;5.286;2023-03-23T10:06:27;6.63;;;2.73;;
13816;SDS011;6979;52.116;5.286;2023-03-23T10:08:54;5.20;;;2.83;;
13816;SDS011;6979;52.116;5.286;2023-03-23T10:11:28;8.47;;;3.10;;
13816;SDS011;6979;52.116;5.286;2023-03-23T10:14:07;7.37;;;3.37;;
13816;SDS011;6979;52.116;5.286;2023-03-23T10:16:44;7.57;;;2.63;;
13816;SDS011;6979;52.116;5.286;2023-03-23T10:19:20;5.70;;;2.67;;
13816;SDS011;6979;52.116;5.286;2023-03-23T10:21:54;5.77;;;2.47;;
13816;SDS011;6979;52.116;5.286;2023-03-23T10:24:26;4.77;;;2.07;;
13816;SDS011;6979;52.116;5.286;2023-03-23T10:27:02;8.33;;;4.50;;
13816;SDS011;6979;52.116;5.286;2023-03-23T10:29:40;8.73;;;3.53;;
13816;SDS011;6979;52.116;5.286;2023-03-23T10:32:12;4.37;;;2.30;;
13816;SDS011;6979;52.116;5.286;2023-03-23T10:34:43;6.70;;;2.87;;
13816;SDS011;6979;52.116;5.286;2023-03-23T10:37:16;4.13;;;2.70;;
13816;SDS011;6979;52.116;5.286;2023-03-23T10:39:47;6.20;;;2.80;;
13816;SDS011;6979;52.116;5.286;2023-03-23T10:42:26;7.10;;;2.73;;
13816;SDS011;6979;52.116;5.286;2023-03-23T10:44:56;10.13;;;3.23;;
13816;SDS011;6979;52.116;5.286;2023-03-23T10:47:25;7.77;;;3.50;;
13816;SDS011;6979;52.116;5.286;2023-03-23T10:49:54;7.97;;;2.87;;
13816;SDS011;6979;52.116;5.286;2023-03-23T10:52:26;5.33;;;2.70;;
13816;SDS011;6979;52.116;5.286;2023-03-23T10:55:01;8.83;;;2.90;;
13816;SDS011;6979;52.116;5.286;2023-03-23T10:57:30;5.37;;;2.40;;
13816;SDS011;6979;52.116;5.286;2023-03-23T11:00:02;8.73;;;3.30;;
13816;SDS011;6979;52.116;5.286;2023-03-23T11:02:37;8.10;;;2.67;;
13816;SDS011;6979;52.116;5.286;2023-03-23T11:05:13;5.67;;;2.47;;
13816;SDS011;6979;52.116;5.286;2023-03-23T11:07:47;9.53;;;3.40;;
13816;SDS011;6979;52.116;5.286;2023-03-23T11:10:21;6.70;;;3.20;;
13816;SDS011;6979;52.116;5.286;2023-03-23T11:12:50;7.03;;;2.73;;
13816;SDS011;6979;52.116;5.286;2023-03-23T11:15:23;5.97;;;2.87;;
13816;SDS011;6979;52.116;5.286;2023-03-23T11:17:57;6.37;;;3.27;;
13816;SDS011;6979;52.116;5.286;2023-03-23T11:20:27;8.53;;;3.50;;
13816;SDS011;6979;52.116;5.286;2023-03-23T11:22:56;8.60;;;3.17;;
13816;SDS011;6979;52.116;5.286;2023-03-23T11:25:23;6.50;;;3.20;;
13816;SDS011;6979;52.116;5.286;2023-03-23T11:27:51;5.03;;;2.60;;
13816;SDS011;6979;52.116;5.286;2023-03-23T11:30:20;5.73;;;2.77;;
13816;SDS011;6979;52.116;5.286;2023-03-23T11:32:52;4.70;;;2.40;;
13816;SDS011;6979;52.116;5.286;2023-03-23T11:35:22;3.23;;;2.50;;
13816;SDS011;6979;52.116;5.286;2023-03-23T11:37:52;4.53;;;2.77;;
13816;SDS011;6979;52.116;5.286;2023-03-23T11:40:24;6.00;;;2.73;;
13816;SDS011;6979;52.116;5.286;2023-03-23T11:42:59;6.43;;;3.17;;
13816;SDS011;6979;52.116;5.286;2023-03-23T11:45:32;6.60;;;3.00;;
13816;SDS011;6979;52.116;5.286;2023-03-23T11:48:12;4.77;;;2.53;;
13816;SDS011;6979;52.116;5.286;2023-03-23T11:50:44;4.90;;;2.33;;
13816;SDS011;6979;52.116;5.286;2023-03-23T11:53:18;8.13;;;2.47;;
13816;SDS011;6979;52.116;5.286;2023-03-23T11:55:55;5.37;;;2.53;;
13816;SDS011;6979;52.116;5.286;2023-03-23T11:58:30;4.90;;;2.67;;
13816;SDS011;6979;52.116;5.286;2023-03-23T12:01:00;5.97;;;2.47;;
13816;SDS011;6979;52.116;5.286;2023-03-23T12:03:40;5.77;;;3.13;;
13816;SDS011;6979;52.116;5.286;2023-03-23T12:06:23;8.67;;;3.03;;
13816;SDS011;6979;52.116;5.286;2023-03-23T12:09:01;5.40;;;2.77;;
13816;SDS011;6979;52.116;5.286;2023-03-23T12:11:37;5.73;;;2.93;;
13816;SDS011;6979;52.116;5.286;2023-03-23T12:14:11;6.67;;;2.70;;
13816;SDS011;6979;52.116;5.286;2023-03-23T12:16:52;6.53;;;3.07;;
13816;SDS011;6979;52.116;5.286;2023-03-23T12:19:28;7.10;;;3.50;;
13816;SDS011;6979;52.116;5.286;2023-03-23T12:22:07;4.20;;;2.70;;
13816;SDS011;6979;52.116;5.286;2023-03-23T12:24:46;5.37;;;2.90;;
13816;SDS011;6979;52.116;5.286;2023-03-23T12:27:25;8.10;;;3.20;;
13816;SDS011;6979;52.116;5.286;2023-03-23T12:30:09;9.50;;;3.00;;
13816;SDS011;6979;52.116;5.286;2023-03-23T12:32:46;4.23;;;1.87;;
13816;SDS011;6979;52.116;5.286;2023-03-23T12:35:25;5.70;;;2.47;;
13816;SDS011;6979;52.116;5.286;2023-03-23T12:38:03;4.23;;;2.13;;
13816;SDS011;6979;52.116;5.286;2023-03-23T12:40:46;4.23;;;2.40;;
13816;SDS011;6979;52.116;5.286;2023-03-23T12:43:26;5.27;;;2.20;;
13816;SDS011;6979;52.116;5.286;2023-03-23T12:46:01;3.53;;;2.23;;
13816;SDS011;6979;52.116;5.286;2023-03-23T12:48:37;8.67;;;3.37;;
13816;SDS011;6979;52.116;5.286;2023-03-23T12:51:14;6.17;;;2.60;;
13816;SDS011;6979;52.116;5.286;2023-03-23T12:53:53;6.13;;;2.60;;
13816;SDS011;6979;52.116;5.286;2023-03-23T12:56:26;6.60;;;2.93;;
13816;SDS011;6979;52.116;5.286;2023-03-23T12:59:01;6.60;;;2.30;;
13816;SDS011;6979;52.116;5.286;2023-03-23T13:01:34;5.67;;;2.20;;
13816;SDS011;6979;52.116;5.286;2023-03-23T13:04:08;4.10;;;2.60;;
13816;SDS011;6979;52.116;5.286;2023-03-23T13:06:40;4.90;;;2.10;;
13816;SDS011;6979;52.116;5.286;2023-03-23T13:09:13;7.13;;;2.60;;
13816;SDS011;6979;52.116;5.286;2023-03-23T13:11:45;3.77;;;2.67;;
13816;SDS011;6979;52.116;5.286;2023-03-23T13:14:18;5.60;;;2.53;;
13816;SDS011;6979;52.116;5.286;2023-03-23T13:16:54;2.80;;;1.53;;
13816;SDS011;6979;52.116;5.286;2023-03-23T13:19:32;5.00;;;2.43;;
13816;SDS011;6979;52.116;5.286;2023-03-23T13:22:07;3.20;;;2.40;;
13816;SDS011;6979;52.116;5.286;2023-03-23T13:24:42;4.53;;;2.20;;
13816;SDS011;6979;52.116;5.286;2023-03-23T13:27:12;7.07;;;2.60;;
13816;SDS011;6979;52.116;5.286;2023-03-23T13:29:43;6.50;;;2.67;;
13816;SDS011;6979;52.116;5.286;2023-03-23T13:32:11;4.20;;;1.90;;
13816;SDS011;6979;52.116;5.286;2023-03-23T13:34:43;5.93;;;2.07;;
13816;SDS011;6979;52.116;5.286;2023-03-23T13:37:21;5.30;;;2.60;;
13816;SDS011;6979;52.116;5.286;2023-03-23T13:39:51;5.73;;;2.30;;
13816;SDS011;6979;52.116;5.286;2023-03-23T13:42:22;3.93;;;2.07;;
13816;SDS011;6979;52.116;5.286;2023-03-23T13:45:07;6.17;;;2.53;;
13816;SDS011;6979;52.116;5.286;2023-03-23T13:47:46;4.37;;;2.03;;
13816;SDS011;6979;52.116;5.286;2023-03-23T13:50:26;6.13;;;2.10;;
13816;SDS011;6979;52.116;5.286;2023-03-23T13:52:57;5.30;;;2.30;;
13816;SDS011;6979;52.116;5.286;2023-03-23T13:55:41;5.37;;;2.07;;
13816;SDS011;6979;52.116;5.286;2023-03-23T13:58:21;6.77;;;2.77;;
13816;SDS011;6979;52.116;5.286;2023-03-23T14:00:50;5.93;;;2.07;;
13816;SDS011;6979;52.116;5.286;2023-03-23T14:03:39;6.07;;;2.37;;
13816;SDS011;6979;52.116;5.286;2023-03-23T14:06:12;4.60;;;2.53;;
13816;SDS011;6979;52.116;5.286;2023-03-23T14:09:04;4.00;;;2.23;;
13816;SDS011;6979;52.116;5.286;2023-03-23T14:11:34;4.50;;;2.67;;
13816;SDS011;6979;52.116;5.286;2023-03-23T14:14:14;5.30;;;3.10;;
13816;SDS011;6979;52.116;5.286;2023-03-23T14:16:45;5.83;;;2.40;;
13816;SDS011;6979;52.116;5.286;2023-03-23T14:19:18;4.20;;;2.60;;
13816;SDS011;6979;52.116;5.286;2023-03-23T14:21:51;5.57;;;2.50;;
13816;SDS011;6979;52.116;5.286;2023-03-23T14:24:21;5.67;;;3.17;;
13816;SDS011;6979;52.116;5.286;2023-03-23T14:26:50;6.67;;;3.57;;
13816;SDS011;6979;52.116;5.286;2023-03-23T14:29:19;4.80;;;2.97;;
13816;SDS011;6979;52.116;5.286;2023-03-23T14:31:49;4.90;;;2.77;;
13816;SDS011;6979;52.116;5.286;2023-03-23T14:34:20;5.10;;;3.17;;
13816;SDS011;6979;52.116;5.286;2023-03-23T14:36:51;5.00;;;2.80;;
13816;SDS011;6979;52.116;5.286;2023-03-23T14:39:20;6.43;;;3.23;;
13816;SDS011;6979;52.116;5.286;2023-03-23T14:41:50;6.87;;;3.53;;
13816;SDS011;6979;52.116;5.286;2023-03-23T14:44:21;6.17;;;2.90;;
13816;SDS011;6979;52.116;5.286;2023-03-23T14:46:50;6.73;;;3.77;;
13816;SDS011;6979;52.116;5.286;2023-03-23T14:49:19;6.20;;;3.17;;
13816;SDS011;6979;52.116;5.286;2023-03-23T14:51:54;6.30;;;3.23;;
13816;SDS011;6979;52.116;5.286;2023-03-23T14:54:22;9.90;;;3.77;;
13816;SDS011;6979;52.116;5.286;2023-03-23T14:56:50;5.87;;;2.53;;
13816;SDS011;6979;52.116;5.286;2023-03-23T14:59:17;6.03;;;2.90;;
13816;SDS011;6979;52.116;5.286;2023-03-23T15:01:45;5.47;;;2.93;;
13816;SDS011;6979;52.116;5.286;2023-03-23T15:04:14;8.63;;;3.40;;
13816;SDS011;6979;52.116;5.286;2023-03-23T15:06:43;4.37;;;2.50;;
13816;SDS011;6979;52.116;5.286;2023-03-23T15:09:15;9.97;;;3.20;;
13816;SDS011;6979;52.116;5.286;2023-03-23T15:11:50;6.47;;;2.40;;
13816;SDS011;6979;52.116;5.286;2023-03-23T15:14:20;4.90;;;2.27;;
13816;SDS011;6979;52.116;5.286;2023-03-23T15:16:49;5.10;;;2.03;;
13816;SDS011;6979;52.116;5.286;2023-03-23T15:19:19;5.73;;;2.47;;
13816;SDS011;6979;52.116;5.286;2023-03-23T15:21:49;4.90;;;2.20;;
13816;SDS011;6979;52.116;5.286;2023-03-23T15:24:33;5.73;;;2.50;;
13816;SDS011;6979;52.116;5.286;2023-03-23T15:27:03;4.67;;;2.23;;
13816;SDS011;6979;52.116;5.286;2023-03-23T15:29:45;6.67;;;2.03;;
13816;SDS011;6979;52.116;5.286;2023-03-23T15:32:20;8.07;;;2.97;;
13816;SDS011;6979;52.116;5.286;2023-03-23T15:34:55;9.17;;;2.63;;
13816;SDS011;6979;52.116;5.286;2023-03-23T15:37:25;6.90;;;2.57;;
13816;SDS011;6979;52.116;5.286;2023-03-23T15:39:55;4.47;;;2.63;;
13816;SDS011;6979;52.116;5.286;2023-03-23T15:42:24;6.77;;;2.27;;
13816;SDS011;6979;52.116;5.286;2023-03-23T15:45:03;5.97;;;2.30;;
13816;SDS011;6979;52.116;5.286;2023-03-23T15:47:44;5.87;;;2.53;;